createdAt,value
2022-10-01T00:02:09.371Z,8.82
2022-10-01T00:04:38.428Z,8.80
2022-10-01T00:07:13.400Z,8.77
2022-10-01T00:09:41.177Z,8.73
2022-10-01T00:12:09.188Z,8.69
2022-10-01T00:14:39.568Z,8.67
2022-10-01T00:17:07.463Z,8.63
2022-10-01T00:19:35.304Z,8.61
2022-10-01T00:22:03.557Z,8.58
2022-10-01T00:24:31.568Z,8.55
2022-10-01T00:27:03.284Z,8.52
2022-10-01T00:29:32.079Z,8.48
2022-10-01T00:32:00.172Z,8.45
2022-10-01T00:34:28.518Z,8.43
2022-10-01T00:36:57.784Z,8.41
2022-10-01T00:39:28.872Z,8.40
2022-10-01T00:41:56.746Z,8.41
2022-10-01T00:44:37.420Z,8.41
2022-10-01T00:47:24.920Z,8.41
2022-10-01T00:50:00.544Z,8.41
2022-10-01T00:52:32.327Z,8.41
2022-10-01T00:55:25.207Z,8.42
2022-10-01T00:57:55.206Z,8.43
2022-10-01T01:00:26.922Z,8.44
2022-10-01T01:02:58.265Z,8.44
2022-10-01T01:05:26.528Z,8.44
2022-10-01T01:07:54.634Z,8.45
2022-10-01T01:10:35.006Z,8.45
2022-10-01T01:13:23.353Z,8.43
2022-10-01T01:16:09.403Z,8.42
2022-10-01T01:19:03.631Z,8.41
2022-10-01T01:21:43.419Z,8.39
2022-10-01T01:25:04.783Z,8.38
2022-10-01T01:27:44.920Z,8.38
2022-10-01T01:30:16.610Z,8.38
2022-10-01T01:33:05.068Z,8.37
2022-10-01T01:35:47.090Z,8.35
2022-10-01T01:38:29.209Z,8.34
2022-10-01T01:41:01.575Z,8.32
2022-10-01T01:43:38.496Z,8.31
2022-10-01T01:46:17.820Z,8.30
2022-10-01T01:48:49.393Z,8.30
2022-10-01T01:51:44.419Z,8.30
2022-10-01T01:54:13.260Z,8.30
2022-10-01T01:56:41.650Z,8.29
2022-10-01T01:59:12.450Z,8.29
2022-10-01T02:01:43.142Z,8.28
2022-10-01T02:04:31.647Z,8.26
2022-10-01T02:07:29.547Z,8.24
2022-10-01T02:10:16.246Z,8.17
2022-10-01T02:13:09.242Z,8.10
2022-10-01T02:16:07.474Z,8.05
2022-10-01T02:18:55.654Z,8.03
2022-10-01T02:21:30.436Z,8.04
2022-10-01T02:24:09.395Z,8.03
2022-10-01T02:26:38.417Z,8.03
2022-10-01T02:29:11.173Z,8.02
2022-10-01T02:31:41.493Z,8.01
2022-10-01T02:34:12.884Z,8.00
2022-10-01T02:36:42.585Z,7.99
2022-10-01T02:39:15.526Z,7.99
2022-10-01T02:41:46.402Z,7.98
2022-10-01T02:44:23.722Z,7.97
2022-10-01T02:47:07.998Z,7.96
2022-10-01T02:49:37.518Z,7.95
2022-10-01T02:52:26.278Z,7.93
2022-10-01T02:55:17.769Z,7.91
2022-10-01T02:57:47.387Z,7.89
2022-10-01T03:00:21.453Z,7.86
2022-10-01T03:02:51.622Z,7.82
2022-10-01T03:05:20.687Z,7.78
2022-10-01T03:07:49.737Z,7.75
2022-10-01T03:10:17.947Z,7.73
2022-10-01T03:12:47.279Z,7.71
2022-10-01T03:15:18.603Z,7.69
2022-10-01T03:17:52.698Z,7.65
2022-10-01T03:20:23.004Z,7.64
2022-10-01T03:22:52.556Z,7.62
2022-10-01T03:25:21.374Z,7.61
2022-10-01T03:27:53.096Z,7.60
2022-10-01T03:30:22.012Z,7.58
2022-10-01T03:32:50.186Z,7.57
2022-10-01T03:35:18.751Z,7.55
2022-10-01T03:37:47.863Z,7.53
2022-10-01T03:40:16.298Z,7.50
2022-10-01T03:42:44.485Z,7.46
2022-10-01T03:45:13.624Z,7.44
2022-10-01T03:47:41.452Z,7.41
2022-10-01T03:50:09.971Z,7.39
2022-10-01T03:52:38.694Z,7.35
2022-10-01T03:55:07.242Z,7.33
2022-10-01T03:57:35.123Z,7.32
2022-10-01T04:00:04.991Z,7.32
2022-10-01T04:02:39.927Z,7.32
2022-10-01T04:05:12.618Z,7.32
2022-10-01T04:07:42.604Z,7.31
2022-10-01T04:10:10.613Z,7.31
2022-10-01T04:12:38.912Z,7.28
2022-10-01T04:15:07.340Z,7.26
2022-10-01T04:17:37.214Z,7.26
2022-10-01T04:20:05.352Z,7.25
2022-10-01T04:22:38.789Z,7.23
2022-10-01T04:25:12.462Z,7.23
2022-10-01T04:27:55.457Z,7.21
2022-10-01T04:30:24.465Z,7.18
2022-10-01T04:32:53.940Z,7.16
2022-10-01T04:35:23.241Z,7.14
2022-10-01T04:38:04.430Z,7.13
2022-10-01T04:40:36.359Z,7.10
2022-10-01T04:43:19.014Z,7.08
2022-10-01T04:45:59.101Z,7.08
2022-10-01T04:48:28.754Z,7.08
2022-10-01T04:51:00.237Z,7.07
2022-10-01T04:53:33.961Z,7.07
2022-10-01T04:56:03.103Z,7.07
2022-10-01T04:58:32.085Z,7.08
2022-10-01T05:01:03.760Z,7.09
2022-10-01T05:03:32.384Z,7.11
2022-10-01T05:06:05.033Z,7.14
2022-10-01T05:08:33.431Z,7.21
2022-10-01T05:11:01.737Z,7.29
2022-10-01T05:13:34.583Z,7.40
2022-10-01T05:16:03.980Z,7.52
2022-10-01T05:18:33.310Z,7.65
2022-10-01T05:21:07.922Z,7.78
2022-10-01T05:23:43.746Z,7.96
2022-10-01T05:26:12.900Z,8.14
2022-10-01T05:28:44.887Z,8.33
2022-10-01T05:31:15.013Z,8.56
2022-10-01T05:33:45.845Z,8.75
2022-10-01T05:36:15.250Z,8.93
2022-10-01T05:38:48.772Z,9.15
2022-10-01T05:41:16.791Z,9.36
2022-10-01T05:43:49.914Z,9.56
2022-10-01T05:46:19.498Z,9.69
2022-10-01T05:48:51.569Z,9.87
2022-10-01T05:51:20.370Z,10.04
2022-10-01T05:53:52.067Z,10.17
2022-10-01T05:56:25.353Z,10.33
2022-10-01T05:58:53.252Z,10.55
2022-10-01T06:01:22.558Z,10.81
2022-10-01T06:03:55.445Z,11.05
2022-10-01T06:06:27.706Z,11.32
2022-10-01T06:08:55.600Z,11.62
2022-10-01T06:11:24.401Z,11.85
2022-10-01T06:13:52.624Z,11.95
2022-10-01T06:16:21.412Z,11.98
2022-10-01T06:18:49.848Z,12.00
2022-10-01T06:21:17.631Z,12.12
2022-10-01T06:23:45.999Z,12.30
2022-10-01T06:26:17.426Z,12.46
2022-10-01T06:28:48.492Z,12.63
2022-10-01T06:31:19.603Z,12.79
2022-10-01T06:33:47.729Z,12.99
2022-10-01T06:36:16.088Z,13.18
2022-10-01T06:38:44.346Z,13.34
2022-10-01T06:41:12.673Z,13.50
2022-10-01T06:43:42.351Z,13.63
2022-10-01T06:46:11.321Z,13.75
2022-10-01T06:48:39.222Z,13.87
2022-10-01T06:51:08.718Z,14.02
2022-10-01T06:53:37.151Z,14.16
2022-10-01T06:56:09.162Z,14.28
2022-10-01T06:58:37.551Z,14.35
2022-10-01T07:01:09.788Z,14.43
2022-10-01T07:03:39.536Z,14.55
2022-10-01T07:06:09.154Z,14.65
2022-10-01T07:08:37.314Z,14.71
2022-10-01T07:11:07.257Z,14.81
2022-10-01T07:13:36.505Z,14.87
2022-10-01T07:16:05.156Z,14.92
2022-10-01T07:18:33.525Z,15.02
2022-10-01T07:21:02.351Z,15.06
2022-10-01T07:23:30.616Z,15.10
2022-10-01T07:25:59.092Z,15.13
2022-10-01T07:28:28.360Z,15.20
2022-10-01T07:31:06.824Z,15.18
2022-10-01T07:33:35.089Z,15.10
2022-10-01T07:36:08.649Z,14.99
2022-10-01T07:38:37.225Z,14.89
2022-10-01T07:41:05.764Z,14.80
2022-10-01T07:43:35.085Z,14.73
2022-10-01T07:46:05.811Z,14.68
2022-10-01T07:48:33.799Z,14.67
2022-10-01T07:51:01.888Z,14.63
2022-10-01T07:53:29.937Z,14.60
2022-10-01T07:56:01.343Z,14.64
2022-10-01T07:58:29.716Z,14.77
2022-10-01T08:01:02.031Z,14.86
2022-10-01T08:03:30.998Z,14.94
2022-10-01T08:05:59.748Z,14.99
2022-10-01T08:08:28.318Z,15.03
2022-10-01T08:10:56.118Z,15.12
2022-10-01T08:13:27.421Z,15.18
2022-10-01T08:15:55.443Z,15.25
2022-10-01T08:18:24.189Z,15.28
2022-10-01T08:20:55.679Z,15.27
2022-10-01T08:23:23.515Z,15.28
2022-10-01T08:25:51.355Z,15.34
2022-10-01T08:28:19.656Z,15.40
2022-10-01T08:30:47.701Z,15.41
2022-10-01T08:33:16.578Z,15.41
2022-10-01T08:35:45.210Z,15.43
2022-10-01T08:38:15.009Z,15.47
2022-10-01T08:40:51.579Z,15.52
2022-10-01T08:43:38.673Z,15.62
2022-10-01T08:46:30.718Z,15.75
2022-10-01T08:49:20.911Z,15.88
2022-10-01T08:51:59.145Z,15.96
2022-10-01T08:54:42.794Z,15.99
2022-10-01T08:57:21.262Z,16.02
2022-10-01T08:59:53.929Z,16.06
2022-10-01T09:02:26.669Z,16.10
2022-10-01T09:05:01.448Z,16.13
2022-10-01T09:08:00.961Z,16.15
2022-10-01T09:10:45.852Z,16.20
2022-10-01T09:13:51.869Z,16.31
2022-10-01T09:16:26.310Z,16.52
2022-10-01T09:19:22.152Z,16.66
2022-10-01T09:21:57.042Z,16.70
2022-10-01T09:24:45.549Z,16.75
2022-10-01T09:27:28.581Z,16.88
2022-10-01T09:30:02.889Z,17.07
2022-10-01T09:32:39.462Z,17.24
2022-10-01T09:35:22.242Z,17.43
2022-10-01T09:37:57.972Z,17.67
2022-10-01T09:40:38.974Z,17.91
2022-10-01T09:43:08.454Z,18.15
2022-10-01T09:45:39.094Z,18.34
2022-10-01T09:48:52.486Z,18.56
2022-10-01T09:51:40.918Z,18.88
2022-10-01T09:54:18.484Z,19.07
2022-10-01T09:56:55.212Z,19.28
2022-10-01T09:59:34.850Z,19.46
2022-10-01T10:02:12.724Z,19.59
2022-10-01T10:04:42.004Z,19.68
2022-10-01T10:07:18.815Z,19.76
2022-10-01T10:09:46.724Z,19.88
2022-10-01T10:12:32.006Z,20.01
2022-10-01T10:15:09.861Z,20.11
2022-10-01T10:17:44.508Z,20.22
2022-10-01T10:20:24.173Z,20.31
2022-10-01T10:22:52.962Z,20.42
2022-10-01T10:25:24.825Z,20.57
2022-10-01T10:27:55.808Z,20.71
2022-10-01T10:30:26.433Z,20.75
2022-10-01T10:33:05.385Z,20.70
2022-10-01T10:35:33.645Z,20.50
2022-10-01T10:38:02.604Z,20.37
2022-10-01T10:40:44.744Z,20.24
2022-10-01T10:43:26.823Z,20.11
2022-10-01T10:45:56.960Z,19.93
2022-10-01T10:48:33.592Z,19.78
2022-10-01T10:51:04.460Z,19.60
2022-10-01T10:53:46.920Z,19.41
2022-10-01T10:56:24.369Z,19.24
2022-10-01T10:58:53.933Z,19.14
2022-10-01T11:01:28.738Z,19.06
2022-10-01T11:04:00.807Z,18.94
2022-10-01T11:06:30.597Z,18.83
2022-10-01T11:09:07.607Z,18.82
2022-10-01T11:11:47.284Z,18.78
2022-10-01T11:14:48.760Z,18.80
2022-10-01T11:17:50.540Z,18.87
2022-10-01T11:20:38.882Z,18.90
2022-10-01T11:23:17.632Z,18.89
2022-10-01T11:26:12.711Z,18.85
2022-10-01T11:29:12.867Z,18.79
2022-10-01T11:31:47.731Z,18.72
2022-10-01T11:34:52.413Z,18.71
2022-10-01T11:37:57.745Z,18.75
2022-10-01T11:40:39.566Z,18.75
2022-10-01T11:43:21.218Z,18.85
2022-10-01T11:45:59.215Z,18.95
2022-10-01T11:48:44.751Z,18.96
2022-10-01T11:51:18.603Z,18.93
2022-10-01T11:53:52.283Z,18.86
2022-10-01T11:56:47.647Z,18.85
2022-10-01T11:59:34.738Z,18.85
2022-10-01T12:02:26.911Z,18.85
2022-10-01T12:05:01.576Z,18.83
2022-10-01T12:07:45.852Z,18.80
2022-10-01T12:10:29.741Z,18.78
2022-10-01T12:13:20.475Z,18.67
2022-10-01T12:15:56.553Z,18.55
2022-10-01T12:18:35.809Z,18.46
2022-10-01T12:21:19.125Z,18.39
2022-10-01T12:24:17.844Z,18.37
2022-10-01T12:27:14.079Z,18.33
2022-10-01T12:29:54.842Z,18.22
2022-10-01T12:32:46.599Z,18.18
2022-10-01T12:35:36.149Z,18.15
2022-10-01T12:38:39.848Z,18.14
2022-10-01T12:41:17.963Z,18.11
2022-10-01T12:44:08.584Z,18.06
2022-10-01T12:47:20.712Z,17.99
2022-10-01T12:50:08.052Z,17.95
2022-10-01T12:52:50.485Z,17.92
2022-10-01T12:55:35.661Z,17.89
2022-10-01T12:58:27.523Z,17.87
2022-10-01T13:01:08.067Z,17.83
2022-10-01T13:04:03.539Z,17.78
2022-10-01T13:07:05.006Z,17.76
2022-10-01T13:10:12.634Z,17.74
2022-10-01T13:13:00.179Z,17.70
2022-10-01T13:15:41.598Z,17.66
2022-10-01T13:18:46.925Z,17.62
2022-10-01T13:21:26.947Z,17.57
2022-10-01T13:24:36.716Z,17.51
2022-10-01T13:27:14.615Z,17.42
2022-10-01T13:29:56.940Z,17.38
2022-10-01T13:33:56.746Z,17.33
2022-10-01T13:36:34.535Z,17.23
2022-10-01T13:39:01.962Z,17.16
2022-10-01T13:41:32.016Z,17.10
2022-10-01T13:44:26.020Z,17.05
2022-10-01T13:47:07.420Z,16.98
2022-10-01T13:49:38.377Z,16.89
2022-10-01T13:52:05.570Z,16.82
2022-10-01T13:54:48.449Z,16.75
2022-10-01T13:57:38.311Z,16.66
2022-10-01T14:00:16.506Z,16.52
2022-10-01T14:03:06.122Z,16.41
2022-10-01T14:05:44.209Z,16.28
2022-10-01T14:08:26.061Z,16.14
2022-10-01T14:11:35.119Z,16.05
2022-10-01T14:14:29.624Z,15.91
2022-10-01T14:16:58.331Z,15.74
2022-10-01T14:19:27.450Z,15.60
2022-10-01T14:22:17.998Z,15.48
2022-10-01T14:25:02.781Z,15.36
2022-10-01T14:27:37.462Z,15.26
2022-10-01T14:30:12.472Z,15.18
2022-10-01T14:32:50.324Z,15.08
2022-10-01T14:35:49.295Z,15.01
2022-10-01T14:38:22.136Z,14.96
2022-10-01T14:40:51.282Z,14.91
2022-10-01T14:43:24.005Z,14.86
2022-10-01T14:45:56.585Z,14.80
2022-10-01T14:48:31.506Z,14.74
2022-10-01T14:51:05.986Z,14.65
2022-10-01T14:53:47.875Z,14.53
2022-10-01T14:56:20.496Z,14.38
2022-10-01T14:58:56.437Z,14.25
2022-10-01T15:01:25.748Z,14.18
2022-10-01T15:03:53.411Z,14.10
2022-10-01T15:06:22.965Z,13.98
2022-10-01T15:08:54.701Z,13.88
2022-10-01T15:11:29.827Z,13.77
2022-10-01T15:14:03.110Z,13.66
2022-10-01T15:16:30.548Z,13.58
2022-10-01T15:19:02.862Z,13.49
2022-10-01T15:21:51.266Z,13.43
2022-10-01T15:24:39.919Z,13.32
2022-10-01T15:27:10.128Z,13.21
2022-10-01T15:29:40.262Z,13.10
2022-10-01T15:32:07.587Z,13.02
2022-10-01T15:34:36.086Z,12.98
2022-10-01T15:37:04.476Z,12.95
2022-10-01T15:39:34.577Z,12.88
2022-10-01T15:42:25.032Z,12.80
2022-10-01T15:45:22.514Z,12.73
2022-10-01T15:47:56.653Z,12.67
2022-10-01T15:50:37.108Z,12.61
2022-10-01T15:53:20.714Z,12.57
2022-10-01T15:55:52.239Z,12.55
2022-10-01T15:58:34.747Z,12.53
2022-10-01T16:01:08.655Z,12.50
2022-10-01T16:03:41.882Z,12.47
2022-10-01T16:06:24.148Z,12.41
2022-10-01T16:09:06.409Z,12.38
2022-10-01T16:12:04.778Z,12.36
2022-10-01T16:14:42.237Z,12.32
2022-10-01T16:17:26.392Z,12.28
2022-10-01T16:19:56.470Z,12.23
2022-10-01T16:22:31.350Z,12.16
2022-10-01T16:25:31.410Z,12.09
2022-10-01T16:28:04.507Z,12.05
2022-10-01T16:30:33.339Z,12.05
2022-10-01T16:33:04.082Z,12.05
2022-10-01T16:35:35.251Z,12.04
2022-10-01T16:38:07.871Z,12.03
2022-10-01T16:40:55.961Z,12.00
2022-10-01T16:43:23.828Z,11.98
2022-10-01T16:45:52.703Z,11.96
2022-10-01T16:48:24.065Z,11.94
2022-10-01T16:50:53.843Z,11.93
2022-10-01T16:53:24.261Z,11.92
2022-10-01T16:55:51.129Z,11.92
2022-10-01T16:58:21.278Z,11.93
2022-10-01T17:00:48.175Z,11.93
2022-10-01T17:03:23.857Z,11.94
2022-10-01T17:05:52.522Z,11.93
2022-10-01T17:08:21.992Z,11.93
2022-10-01T17:11:00.514Z,11.94
2022-10-01T17:13:32.315Z,11.94
2022-10-01T17:15:59.921Z,11.94
2022-10-01T17:18:27.065Z,11.93
2022-10-01T17:20:55.692Z,11.93
2022-10-01T17:23:26.658Z,11.95
2022-10-01T17:25:53.767Z,11.95
2022-10-01T17:28:21.282Z,11.95
2022-10-01T17:30:49.509Z,11.96
2022-10-01T17:33:21.856Z,11.97
2022-10-01T17:35:51.412Z,11.98
2022-10-01T17:38:31.808Z,11.99
2022-10-01T17:41:19.061Z,12.01
2022-10-01T17:43:54.263Z,12.04
2022-10-01T17:46:21.180Z,12.05
2022-10-01T17:48:56.482Z,12.06
2022-10-01T17:51:25.334Z,12.06
2022-10-01T17:53:54.672Z,12.07
2022-10-01T17:56:24.834Z,12.09
2022-10-01T17:58:54.257Z,12.10
2022-10-01T18:01:21.864Z,12.11
2022-10-01T18:03:56.579Z,12.11
2022-10-01T18:06:26.055Z,12.10
2022-10-01T18:08:55.968Z,12.10
2022-10-01T18:11:26.529Z,12.11
2022-10-01T18:13:54.425Z,12.10
2022-10-01T18:16:22.805Z,12.10
2022-10-01T18:21:50.638Z,12.12
2022-10-01T18:24:18.438Z,12.12
2022-10-01T18:26:45.919Z,12.13
2022-10-01T18:29:22.984Z,12.14
2022-10-01T18:32:21.922Z,12.14
2022-10-01T18:35:00.745Z,12.16
2022-10-01T18:37:48.983Z,12.16
2022-10-01T18:40:28.067Z,12.16
2022-10-01T18:43:09.380Z,12.16
2022-10-01T18:45:56.648Z,12.16
2022-10-01T18:48:37.081Z,12.17
2022-10-01T18:51:25.056Z,12.17
2022-10-01T18:53:59.124Z,12.16
2022-10-01T18:56:33.409Z,12.14
2022-10-01T18:59:08.863Z,12.12
2022-10-01T19:02:00.525Z,12.11
2022-10-01T19:05:18.993Z,12.12
2022-10-01T19:08:20.366Z,12.12
2022-10-01T19:11:08.879Z,12.11
2022-10-01T19:13:58.688Z,12.11
2022-10-01T19:16:42.908Z,12.13
2022-10-01T19:19:38.883Z,12.13
2022-10-01T19:22:34.892Z,12.14
2022-10-01T19:25:10.346Z,12.15
2022-10-01T19:28:04.923Z,12.17
2022-10-01T19:31:01.007Z,12.17
2022-10-01T19:33:31.815Z,12.18
2022-10-01T19:36:01.020Z,12.18
2022-10-01T19:38:35.829Z,12.19
2022-10-01T19:41:07.892Z,12.21
2022-10-01T19:44:01.665Z,12.22
2022-10-01T19:46:37.437Z,12.23
2022-10-01T19:49:20.484Z,12.23
2022-10-01T19:52:03.074Z,12.25
2022-10-01T19:54:37.024Z,12.26
2022-10-01T19:57:23.195Z,12.27
2022-10-01T19:59:55.761Z,12.29
2022-10-01T20:02:34.759Z,12.30
2022-10-01T20:05:06.616Z,12.30
2022-10-01T20:07:49.347Z,12.28
2022-10-01T20:10:32.287Z,12.27
2022-10-01T20:13:11.296Z,12.25
2022-10-01T20:15:54.714Z,12.22
2022-10-01T20:18:42.751Z,12.18
2022-10-01T20:21:42.060Z,12.13
2022-10-01T20:24:28.690Z,12.08
2022-10-01T20:27:23.197Z,12.01
2022-10-01T20:30:28.720Z,11.93
2022-10-01T20:33:42.547Z,11.85
2022-10-01T20:36:18.248Z,11.76
2022-10-01T20:39:13.651Z,11.68
2022-10-01T20:41:47.533Z,11.61
2022-10-01T20:44:22.586Z,11.55
2022-10-01T20:46:55.568Z,11.50
2022-10-01T20:49:36.124Z,11.44
2022-10-01T20:52:20.279Z,11.39
2022-10-01T20:54:53.672Z,11.36
2022-10-01T20:57:45.551Z,11.35
2022-10-01T21:00:23.231Z,11.35
2022-10-01T21:03:35.644Z,11.34
2022-10-01T21:06:25.994Z,11.32
2022-10-01T21:09:24.427Z,11.32
2022-10-01T21:12:06.423Z,11.31
2022-10-01T21:14:45.818Z,11.31
2022-10-01T21:17:31.720Z,11.32
2022-10-01T21:20:11.493Z,11.33
2022-10-01T21:22:50.740Z,11.34
2022-10-01T21:25:31.428Z,11.38
2022-10-01T21:28:34.590Z,11.41
2022-10-01T21:31:20.319Z,11.44
2022-10-01T21:34:21.764Z,11.47
2022-10-01T21:36:59.551Z,11.50
2022-10-01T21:39:30.919Z,11.54
2022-10-01T21:42:08.769Z,11.57
2022-10-01T21:44:53.523Z,11.60
2022-10-01T21:48:00.380Z,11.65
2022-10-01T21:50:42.116Z,11.69
2022-10-01T21:53:42.025Z,11.73
2022-10-01T21:56:37.929Z,11.79
2022-10-01T21:59:39.810Z,11.83
2022-10-01T22:02:40.124Z,11.88
2022-10-01T22:05:54.484Z,11.92
2022-10-01T22:08:47.046Z,11.96
2022-10-01T22:11:18.267Z,11.99
2022-10-01T22:13:55.678Z,12.03
2022-10-01T22:16:27.861Z,12.07
2022-10-01T22:19:09.168Z,12.10
2022-10-01T22:21:46.513Z,12.12
2022-10-01T22:24:20.137Z,12.14
2022-10-01T22:26:53.912Z,12.16
2022-10-01T22:29:29.431Z,12.15
2022-10-01T22:32:01.414Z,12.15
2022-10-01T22:34:34.103Z,12.14
2022-10-01T22:37:06.662Z,12.12
2022-10-01T22:39:39.224Z,12.13
2022-10-01T22:42:20.324Z,12.14
2022-10-01T22:44:47.489Z,12.14
2022-10-01T22:48:15.492Z,12.15
2022-10-01T22:51:01.564Z,12.14
2022-10-01T22:53:58.949Z,12.12
2022-10-01T22:56:40.797Z,12.10
2022-10-01T22:59:31.692Z,12.08
2022-10-01T23:02:27.979Z,12.07
2022-10-01T23:05:02.982Z,12.05
2022-10-01T23:07:55.461Z,12.02
2022-10-01T23:10:34.468Z,12.00
2022-10-01T23:13:07.768Z,12.00
2022-10-01T23:15:59.831Z,11.99
2022-10-01T23:18:40.700Z,11.98
2022-10-01T23:21:27.048Z,11.98
2022-10-01T23:24:14.464Z,11.98
2022-10-01T23:27:17.970Z,11.97
2022-10-01T23:29:58.589Z,11.98
2022-10-01T23:32:37.460Z,11.98
2022-10-01T23:35:38.689Z,12.00
2022-10-01T23:38:19.948Z,12.01
2022-10-01T23:40:51.314Z,12.02
2022-10-01T23:43:35.292Z,12.01
2022-10-01T23:46:13.977Z,11.99
2022-10-01T23:48:52.653Z,11.98
2022-10-01T23:51:22.910Z,11.97
2022-10-01T23:54:04.804Z,11.96
2022-10-01T23:56:49.229Z,11.95
2022-10-01T23:59:28.172Z,11.94
